Time;durP1;ratioP1;P1;durP2;ratioP2;P2;SDS_P1;SDS_P2;PMS_P1;PMS_P2;Temp;Humidity;BMP_temperature;BMP_pressure;BME280_temperature;BME280_humidity;BME280_pressure;Samples;Min_cycle;Max_cycle;Signal;HPM_P1;HPM_P2
2023/03/14 00:01:09;;;;;;;22.58;20.25;;;;;;;3.52;57.36;95110.59;5118321;28;20183;-72
2023/03/14 00:03:35;;;;;;;21.58;19.38;;;;;;;3.55;57.47;95109.97;5117434;28;20203;-73
2023/03/14 00:06:03;;;;;;;20.35;18.30;;;;;;;3.54;56.43;95108.38;5117995;28;20545;-72
2023/03/14 00:08:30;;;;;;;23.02;20.73;;;;;;;3.56;57.22;95115.13;5117662;27;20560;-72
2023/03/14 00:10:58;;;;;;;22.85;20.75;;;;;;;3.53;57.06;95102.13;5120914;27;20194;-72
2023/03/14 00:13:25;;;;;;;23.30;20.85;;;;;;;3.42;58.16;95100.72;5121747;27;20599;-71
2023/03/14 00:15:52;;;;;;;22.23;20.02;;;;;;;3.34;58.07;95099.53;5121164;27;20210;-72
2023/03/14 00:18:19;;;;;;;20.35;18.25;;;;;;;3.41;58.39;95096.38;5121800;27;20203;-71
2023/03/14 00:20:46;;;;;;;21.38;19.27;;;;;;;3.47;58.23;95097.06;5121848;27;20191;-72
2023/03/14 00:23:13;;;;;;;21.40;19.27;;;;;;;3.39;57.81;95084.97;5121161;27;20210;-72
2023/03/14 00:25:40;;;;;;;21.08;18.95;;;;;;;3.26;58.83;95083.88;5121323;27;20255;-72
2023/03/14 00:28:08;;;;;;;21.55;19.40;;;;;;;3.25;58.10;95081.47;5121769;27;20195;-72
2023/03/14 00:30:35;;;;;;;20.02;18.02;;;;;;;3.27;58.78;95076.53;5121100;27;20211;-72
2023/03/14 00:33:01;;;;;;;19.80;17.95;;;;;;;3.26;58.25;95077.63;5139221;27;20203;-72
2023/03/14 00:35:28;;;;;;;18.00;16.23;;;;;;;3.30;58.08;95073.19;5139359;27;20175;-72
2023/03/14 00:37:55;;;;;;;18.50;16.70;;;;;;;3.34;57.41;95068.72;5121885;27;20195;-72
2023/03/14 00:40:21;;;;;;;19.30;17.35;;;;;;;3.30;56.78;95065.78;5121522;27;20191;-71
2023/03/14 00:42:49;;;;;;;18.33;16.63;;;;;;;3.28;57.04;95065.31;5138758;27;20231;-72
2023/03/14 00:45:17;;;;;;;18.58;16.70;;;;;;;3.27;56.43;95068.38;5121146;27;20614;-72
2023/03/14 00:47:45;;;;;;;17.77;16.08;;;;;;;3.24;56.55;95071.69;5120937;27;20195;-72
2023/03/14 00:50:12;;;;;;;17.70;16.10;;;;;;;3.24;56.11;95072.50;5121612;27;20293;-71
2023/03/14 00:52:38;;;;;;;16.77;15.25;;;;;;;3.27;55.69;95065.63;5120854;27;20222;-72
2023/03/14 00:55:06;;;;;;;15.88;14.27;;;;;;;3.29;55.46;95066.91;5121015;27;20209;-72
2023/03/14 00:57:33;;;;;;;15.68;14.07;;;;;;;3.33;54.95;95056.22;5120809;27;20206;-71
2023/03/14 00:59:59;;;;;;;15.60;14.15;;;;;;;3.25;55.26;95055.03;5121184;27;20202;-72
2023/03/14 01:02:27;;;;;;;14.82;13.32;;;;;;;3.26;54.95;95053.91;5120415;27;20199;-73
2023/03/14 01:04:54;;;;;;;14.70;13.27;;;;;;;3.29;54.56;95053.28;5138475;27;20636;-72
2023/03/14 01:07:21;;;;;;;15.52;14.05;;;;;;;3.37;54.08;95049.03;5120667;27;20198;-72
2023/03/14 01:09:47;;;;;;;15.07;13.70;;;;;;;3.34;54.08;95047.75;5120307;27;20195;-71
2023/03/14 01:12:14;;;;;;;14.18;12.88;;;;;;;3.32;53.61;95044.50;5120380;27;20226;-72
2023/03/14 01:14:41;;;;;;;14.07;12.68;;;;;;;3.32;54.18;95049.16;5120576;27;20533;-72
2023/03/14 01:17:08;;;;;;;15.00;13.50;;;;;;;3.35;54.97;95033.00;5120485;27;20221;-71
2023/03/14 01:19:36;;;;;;;15.40;13.88;;;;;;;3.34;56.54;95034.09;5120153;27;20206;-72
2023/03/14 01:22:02;;;;;;;14.85;13.43;;;;;;;3.31;55.39;95037.44;5120408;27;20267;-72
2023/03/14 01:24:29;;;;;;;14.32;13.05;;;;;;;3.27;55.02;95027.47;5120033;27;20202;-72
2023/03/14 01:26:56;;;;;;;13.55;12.25;;;;;;;3.24;54.68;95028.88;5120348;27;20198;-72
2023/03/14 01:29:23;;;;;;;13.38;12.18;;;;;;;3.20;53.81;95024.38;5119858;27;20202;-72
2023/03/14 01:31:49;;;;;;;14.07;12.88;;;;;;;3.16;54.46;95021.44;5120181;27;20225;-73
2023/03/14 01:34:16;;;;;;;13.63;12.43;;;;;;;3.24;55.36;95022.63;5119888;27;20205;-72
2023/03/14 01:36:44;;;;;;;14.00;12.70;;;;;;;3.27;55.68;95020.09;5120380;27;20191;-73
2023/03/14 01:39:12;;;;;;;15.95;14.35;;;;;;;3.21;56.67;95021.31;5120316;27;20210;-72
2023/03/14 01:41:40;;;;;;;15.55;14.05;;;;;;;3.09;57.61;95016.41;5119640;27;20183;-72
2023/03/14 01:44:09;;;;;;;13.73;12.52;;;;;;;3.02;56.58;95015.22;5119897;27;20237;-72
2023/03/14 01:46:39;;;;;;;13.82;12.43;;;;;;;2.99;55.68;95010.38;5119891;27;20207;-73
2023/03/14 01:49:19;;;;;;;13.55;12.35;;;;;;;3.01;55.49;95002.69;5119914;27;20203;-72
2023/03/14 01:51:51;;;;;;;15.48;13.88;;;;;;;2.99;57.03;95002.19;5119793;27;20210;-72
2023/03/14 01:54:21;;;;;;;14.32;13.13;;;;;;;2.98;57.21;95003.28;5120042;27;20195;-72
2023/03/14 01:56:51;;;;;;;13.95;12.75;;;;;;;2.99;57.62;95008.47;5119655;27;20202;-72
2023/03/14 01:59:19;;;;;;;14.80;13.45;;;;;;;3.00;57.21;94999.16;5119608;27;20203;-72
2023/03/14 02:01:48;;;;;;;13.98;12.77;;;;;;;2.98;57.10;95003.28;5119244;27;20630;-71
2023/03/14 02:04:15;;;;;;;14.82;13.32;;;;;;;2.92;57.41;95001.81;5119503;27;20228;-71
2023/03/14 02:06:51;;;;;;;14.23;12.95;;;;;;;2.91;57.68;94994.75;5119485;27;20195;-72
2023/03/14 02:09:18;;;;;;;14.52;13.13;;;;;;;2.89;57.51;94998.56;5119242;27;20539;-71
2023/03/14 02:11:45;;;;;;;15.18;13.70;;;;;;;2.87;57.50;94992.66;5119193;27;20229;-72
2023/03/14 02:14:20;;;;;;;14.13;12.93;;;;;;;2.83;58.07;94994.38;5119504;27;20202;-72
2023/03/14 02:16:47;;;;;;;13.90;12.60;;;;;;;2.80;58.18;94989.53;5119085;27;20198;-72
2023/03/14 02:19:14;;;;;;;14.40;13.00;;;;;;;2.76;58.68;94993.16;5119208;27;20202;-72
2023/03/14 02:21:48;;;;;;;14.73;13.23;;;;;;;2.75;58.31;94983.38;5137310;27;20183;-72
2023/03/14 02:24:20;;;;;;;13.98;12.68;;;;;;;2.78;58.33;94999.09;5119499;27;20195;-72
2023/03/14 02:27:05;;;;;;;13.63;12.40;;;;;;;2.68;57.77;94991.94;5119141;27;20315;-72
2023/03/14 02:29:33;;;;;;;12.95;11.85;;;;;;;2.64;58.20;94993.69;5118909;27;20278;-73
2023/03/14 02:32:00;;;;;;;12.10;11.10;;;;;;;2.57;57.57;94998.72;5118719;27;20211;-73
2023/03/14 02:34:27;;;;;;;12.75;11.60;;;;;;;2.57;56.69;94996.00;5118901;27;20195;-72
2023/03/14 02:36:54;;;;;;;12.88;11.57;;;;;;;2.57;57.62;95004.16;5119225;27;20195;-72
2023/03/14 02:39:24;;;;;;;13.85;12.45;;;;;;;2.59;58.27;94999.25;5118936;27;20198;-72
2023/03/14 02:41:50;;;;;;;13.77;12.48;;;;;;;2.58;58.16;95001.16;5118558;27;20206;-72
2023/03/14 02:44:18;;;;;;;14.30;13.00;;;;;;;2.57;58.81;95006.88;5115131;28;20662;-72
2023/03/14 02:46:45;;;;;;;12.98;11.60;;;;;;;2.63;58.40;95005.69;5115365;28;20623;-72
2023/03/14 02:49:14;;;;;;;13.90;12.52;;;;;;;2.51;58.79;95002.69;5114866;28;20542;-73
2023/03/14 02:51:41;;;;;;;13.73;12.52;;;;;;;2.37;59.06;95008.91;5114937;28;20194;-73
2023/03/14 02:54:08;;;;;;;13.35;12.05;;;;;;;2.35;58.87;95002.16;5114984;28;20577;-73
2023/03/14 02:56:36;;;;;;;13.50;12.38;;;;;;;2.23;58.49;95005.38;5115543;28;20211;-72
2023/03/14 02:59:03;;;;;;;13.60;12.30;;;;;;;2.26;58.53;95006.72;5115301;28;20196;-73
2023/03/14 03:01:31;;;;;;;13.57;12.35;;;;;;;2.25;58.61;95005.06;5114725;28;20198;-73
2023/03/14 03:03:58;;;;;;;14.68;13.27;;;;;;;2.13;58.63;95000.13;5114770;28;20210;-73
2023/03/14 03:06:25;;;;;;;14.88;13.52;;;;;;;1.96;59.63;95005.34;5115969;28;20207;-73
2023/03/14 03:08:52;;;;;;;15.20;13.63;;;;;;;1.96;59.91;95000.75;5115226;28;20187;-72
2023/03/14 03:11:19;;;;;;;14.90;13.55;;;;;;;1.99;59.65;95000.13;5115126;28;20204;-72
2023/03/14 03:13:45;;;;;;;14.50;13.10;;;;;;;2.09;59.90;95004.56;5114790;28;20218;-72
2023/03/14 03:16:13;;;;;;;14.23;12.85;;;;;;;2.16;59.03;95008.50;5115604;28;20199;-72
2023/03/14 03:18:41;;;;;;;13.40;12.27;;;;;;;2.21;59.13;95001.34;5114963;28;20248;-72
2023/03/14 03:21:09;;;;;;;14.00;12.52;;;;;;;2.20;58.21;95008.72;5114939;28;20199;-72
2023/03/14 03:23:36;;;;;;;15.10;13.70;;;;;;;2.20;58.51;94997.81;5114799;28;20207;-73
2023/03/14 03:26:03;;;;;;;13.93;12.63;;;;;;;2.26;57.95;94998.53;5114945;28;20619;-72
2023/03/14 03:28:30;;;;;;;13.82;12.52;;;;;;;2.28;58.60;95005.28;5114969;28;20541;-72
2023/03/14 03:30:56;;;;;;;15.30;13.90;;;;;;;2.23;58.80;94999.16;5114714;28;20534;-72
2023/03/14 03:33:24;;;;;;;15.38;13.77;;;;;;;2.08;59.38;94992.09;5114661;28;20226;-72
2023/03/14 03:35:53;;;;;;;15.18;13.68;;;;;;;2.05;59.74;94992.69;5114429;28;20192;-72
2023/03/14 03:38:20;;;;;;;15.38;13.77;;;;;;;2.08;59.74;94992.09;5114891;28;20260;-72
2023/03/14 03:40:47;;;;;;;14.52;13.10;;;;;;;2.16;59.13;94999.53;5114652;28;20215;-73
2023/03/14 03:43:14;;;;;;;15.65;14.18;;;;;;;2.21;58.91;95004.06;5114483;28;20570;-73
2023/03/14 03:45:40;;;;;;;14.93;13.43;;;;;;;2.14;58.12;95004.47;5117504;28;20195;-72
2023/03/14 03:48:07;;;;;;;15.40;13.80;;;;;;;2.13;57.88;95011.03;5119481;28;20183;-72
2023/03/14 03:50:34;;;;;;;14.63;13.07;;;;;;;2.12;57.60;95012.94;5118887;28;20505;-72
2023/03/14 03:53:02;;;;;;;14.48;13.07;;;;;;;2.19;57.63;95007.09;5118597;28;20222;-72
2023/03/14 03:55:29;;;;;;;15.25;13.77;;;;;;;2.18;58.26;95010.94;5118445;28;20203;-72
2023/03/14 03:57:55;;;;;;;14.82;13.32;;;;;;;2.07;58.33;95012.22;5119125;28;20210;-73
2023/03/14 04:00:22;;;;;;;15.18;13.68;;;;;;;1.95;59.13;95004.53;5119206;28;20527;-72
2023/03/14 04:02:49;;;;;;;14.20;12.90;;;;;;;1.85;59.25;95011.00;5118356;28;20207;-73
2023/03/14 04:05:16;;;;;;;14.80;13.20;;;;;;;1.80;59.65;95004.81;5118271;28;20204;-71
2023/03/14 04:07:42;;;;;;;13.88;12.55;;;;;;;1.86;59.79;95009.88;5118112;28;20188;-71
2023/03/14 04:10:11;;;;;;;15.45;13.85;;;;;;;1.84;59.90;95011.28;5118151;28;20206;-72
2023/03/14 04:12:54;;;;;;;16.13;14.13;;;;;;;1.78;59.30;95007.84;5119028;28;20207;-72
2023/03/14 04:15:22;;;;;;;16.17;14.30;;;;;;;1.66;59.90;95005.59;5118235;28;20545;-72
2023/03/14 04:18:09;;;;;;;15.35;13.45;;;;;;;1.68;60.18;94989.78;5118674;28;20203;-72
2023/03/14 04:20:37;;;;;;;15.80;14.05;;;;;;;1.60;60.08;94984.25;5118233;28;20199;-72
2023/03/14 04:23:24;;;;;;;15.57;14.05;;;;;;;1.62;60.30;94988.25;5118971;28;20186;-72
2023/03/14 04:26:14;;;;;;;15.35;13.85;;;;;;;1.72;60.96;94984.56;5118459;28;20199;-71
2023/03/14 04:28:51;;;;;;;14.63;13.15;;;;;;;1.75;59.88;94980.44;5117870;28;20200;-72
2023/03/14 04:31:29;;;;;;;17.77;14.52;;;;;;;1.63;60.30;94976.31;5117982;28;20195;-73
2023/03/14 04:33:56;;;;;;;18.23;15.07;;;;;;;1.48;60.35;94975.75;5117542;28;20227;-72
2023/03/14 04:36:22;;;;;;;19.42;16.75;;;;;;;1.39;60.45;94975.63;5117984;28;20196;-71
2023/03/14 04:38:49;;;;;;;21.42;17.33;;;;;;;1.38;60.17;94963.13;5118152;28;20199;-72
2023/03/14 04:41:17;;;;;;;20.83;16.70;;;;;;;1.41;60.99;94957.09;5118121;28;20215;-71
2023/03/14 04:43:44;;;;;;;22.85;17.90;;;;;;;1.48;60.80;94962.94;5117765;28;20576;-71
2023/03/14 04:46:12;;;;;;;21.83;16.85;;;;;;;1.54;61.11;94960.97;5117929;28;20195;-71
2023/03/14 04:48:39;;;;;;;20.13;16.48;;;;;;;1.55;60.73;94963.38;5117568;28;20202;-71
2023/03/14 04:51:06;;;;;;;22.85;16.67;;;;;;;1.53;60.95;94964.78;5117946;28;20196;-71
2023/03/14 04:53:33;;;;;;;23.60;17.58;;;;;;;1.52;60.68;94961.25;5117399;28;20228;-71
2023/03/14 04:56:00;;;;;;;22.23;17.70;;;;;;;1.60;60.84;94957.88;5117944;28;20172;-71
2023/03/14 04:58:28;;;;;;;25.02;18.42;;;;;;;1.57;61.06;94952.22;5117555;28;20199;-71
2023/03/14 05:00:55;;;;;;;24.75;19.48;;;;;;;1.57;61.02;94953.03;5117929;28;20566;-71
2023/03/14 05:03:22;;;;;;;29.25;19.75;;;;;;;1.53;60.64;94962.88;5117584;28;20199;-71
2023/03/14 05:05:48;;;;;;;27.13;19.23;;;;;;;1.54;60.98;94955.53;5117652;28;20202;-71
2023/03/14 05:08:15;;;;;;;25.77;19.35;;;;;;;1.60;61.26;94951.63;5117237;28;20425;-71
2023/03/14 05:10:42;;;;;;;24.60;19.73;;;;;;;1.67;61.02;94954.72;5116840;28;20429;-74
2023/03/14 05:13:09;;;;;;;22.35;19.00;;;;;;;1.74;60.14;94957.06;5117782;28;20219;-73
2023/03/14 05:15:37;;;;;;;21.33;18.25;;;;;;;1.77;60.55;94954.56;5116953;28;20195;-73
2023/03/14 05:18:03;;;;;;;24.83;18.15;;;;;;;1.75;60.23;94947.81;5116813;28;20184;-73
2023/03/14 05:20:31;;;;;;;20.05;17.52;;;;;;;1.76;60.70;94949.44;5117604;28;20207;-73
2023/03/14 05:22:58;;;;;;;24.17;19.10;;;;;;;1.74;61.38;94946.19;5117222;28;20183;-73
2023/03/14 05:25:25;;;;;;;26.58;20.15;;;;;;;1.72;62.06;94945.69;5116796;28;20184;-73
2023/03/14 05:27:54;;;;;;;25.90;20.48;;;;;;;1.75;61.35;94945.91;5116871;28;20195;-73
2023/03/14 05:30:21;;;;;;;24.08;18.45;;;;;;;1.83;60.86;94947.91;5116553;28;20200;-73
2023/03/14 05:32:49;;;;;;;24.17;19.20;;;;;;;1.93;60.57;94953.19;5116944;28;20538;-73
2023/03/14 05:35:16;;;;;;;20.45;17.67;;;;;;;2.02;60.41;94947.84;5116566;28;20200;-73
2023/03/14 05:37:43;;;;;;;23.55;18.65;;;;;;;2.04;59.91;94948.34;5116455;28;20203;-72
2023/03/14 05:40:11;;;;;;;20.23;17.48;;;;;;;2.12;59.73;94947.63;5116721;28;20192;-73
2023/03/14 05:42:37;;;;;;;19.88;16.73;;;;;;;2.22;60.09;94945.84;5119698;27;20230;-73
2023/03/14 05:45:05;;;;;;;18.88;16.48;;;;;;;2.30;59.69;94951.38;5119772;27;20206;-73
2023/03/14 05:47:32;;;;;;;18.40;16.52;;;;;;;2.34;59.39;94951.56;5120073;27;20194;-72
2023/03/14 05:50:00;;;;;;;18.77;15.50;;;;;;;2.34;58.44;94944.19;5119889;27;20199;-72
2023/03/14 05:52:27;;;;;;;16.45;14.70;;;;;;;2.40;58.77;94947.63;5119740;27;20202;-72
2023/03/14 05:54:53;;;;;;;18.25;14.65;;;;;;;2.47;58.41;94956.19;5119799;27;20207;-73
2023/03/14 05:57:21;;;;;;;18.42;15.40;;;;;;;2.51;58.58;94946.31;5119487;27;20195;-73
2023/03/14 05:59:47;;;;;;;17.85;15.98;;;;;;;2.57;58.03;94950.50;5119485;27;20198;-73
2023/03/14 06:02:14;;;;;;;17.50;14.32;;;;;;;2.68;56.91;94944.84;5119456;27;20202;-72
2023/03/14 06:04:41;;;;;;;16.48;14.65;;;;;;;2.77;56.59;94945.75;5119694;27;20194;-72
2023/03/14 06:07:09;;;;;;;16.40;13.45;;;;;;;2.85;56.84;94943.09;5118465;27;20198;-72
2023/03/14 06:09:36;;;;;;;12.20;11.00;;;;;;;2.91;56.34;94951.97;5119217;27;20194;-73
2023/03/14 06:12:02;;;;;;;12.07;10.85;;;;;;;2.94;56.45;94940.47;5119137;27;20202;-72
2023/03/14 06:14:29;;;;;;;10.98;9.98;;;;;;;2.96;55.12;94940.94;5119312;27;20215;-72
2023/03/14 06:16:56;;;;;;;9.93;9.02;;;;;;;3.02;55.89;94941.66;5119280;27;20207;-73
2023/03/14 06:19:23;;;;;;;10.50;9.55;;;;;;;3.07;55.66;94947.78;5119101;27;20206;-72
2023/03/14 06:21:50;;;;;;;10.07;9.18;;;;;;;3.07;54.84;94947.78;5119002;27;20282;-72
2023/03/14 06:24:18;;;;;;;9.27;8.38;;;;;;;3.09;54.76;94959.19;5119087;27;20199;-73
2023/03/14 06:26:45;;;;;;;9.32;8.43;;;;;;;3.13;54.65;94952.00;5136896;27;20519;-73
2023/03/14 06:29:13;;;;;;;9.48;8.68;;;;;;;3.22;54.05;94953.97;5119086;27;20539;-72
2023/03/14 06:31:40;;;;;;;12.95;11.82;;;;;;;3.26;53.81;94955.78;5136771;27;20603;-72
2023/03/14 06:34:08;;;;;;;8.70;7.90;;;;;;;3.32;53.85;94945.56;5136939;27;20242;-73
2023/03/14 06:36:35;;;;;;;9.23;8.32;;;;;;;3.41;53.55;94948.34;5136944;27;20179;-73
2023/03/14 06:39:01;;;;;;;10.18;9.30;;;;;;;3.46;53.27;94937.31;5119004;27;20195;-73
2023/03/14 06:41:29;;;;;;;11.18;10.07;;;;;;;3.52;52.67;94949.69;5118795;27;20551;-73
2023/03/14 06:43:56;;;;;;;11.48;10.43;;;;;;;3.56;51.99;94937.06;5118367;27;20230;-73
2023/03/14 06:46:23;;;;;;;11.88;10.65;;;;;;;3.59;53.03;94941.88;5118429;27;20198;-73
2023/03/14 06:48:50;;;;;;;13.75;12.45;;;;;;;3.69;53.65;94933.44;5119009;27;20202;-73
2023/03/14 06:51:16;;;;;;;16.20;14.80;;;;;;;3.77;53.13;94929.94;5118678;27;20235;-73
2023/03/14 06:53:43;;;;;;;22.30;19.92;;;;;;;3.90;53.01;94924.72;5118928;27;20226;-73
2023/03/14 06:56:10;;;;;;;22.95;20.73;;;;;;;4.01;52.95;94915.13;5118584;27;20195;-73
2023/03/14 06:58:38;;;;;;;22.15;19.98;;;;;;;4.12;53.50;94912.94;5118391;27;20183;-73
2023/03/14 07:01:05;;;;;;;21.67;19.58;;;;;;;4.17;52.77;94905.41;5118442;27;20190;-73
2023/03/14 07:03:32;;;;;;;18.67;16.80;;;;;;;4.23;52.31;94909.59;5118614;27;20198;-73
2023/03/14 07:05:59;;;;;;;17.13;15.52;;;;;;;4.29;52.17;94904.81;5118390;27;20603;-73
2023/03/14 07:08:26;;;;;;;17.33;15.57;;;;;;;4.35;51.87;94900.78;5118180;27;20512;-73
2023/03/14 07:10:53;;;;;;;17.40;15.70;;;;;;;4.33;51.42;94905.78;5118719;27;20195;-73
2023/03/14 07:13:20;;;;;;;16.40;14.70;;;;;;;4.31;50.92;94906.09;5118191;28;20689;-73
2023/03/14 07:15:48;;;;;;;18.00;16.30;;;;;;;4.39;51.60;94909.94;5118649;27;20195;-72
2023/03/14 07:18:14;;;;;;;17.13;15.60;;;;;;;4.48;51.57;94912.72;5118282;28;20513;-73
2023/03/14 07:20:41;;;;;;;16.98;15.25;;;;;;;4.66;51.80;94910.84;5136479;27;20187;-73
2023/03/14 07:23:08;;;;;;;16.90;15.35;;;;;;;4.72;51.17;94904.91;5118114;28;20191;-73
2023/03/14 07:25:35;;;;;;;16.88;15.30;;;;;;;4.85;51.45;94907.78;5118017;28;20187;-73
2023/03/14 07:28:01;;;;;;;17.33;15.75;;;;;;;4.96;51.43;94901.69;5118364;28;20191;-73
2023/03/14 07:30:28;;;;;;;16.98;15.20;;;;;;;5.07;50.26;94904.91;5136479;28;20191;-73
2023/03/14 07:32:56;;;;;;;15.55;14.15;;;;;;;5.11;50.24;94888.66;5118206;28;20194;-73
2023/03/14 07:35:23;;;;;;;18.10;14.57;;;;;;;5.29;51.27;94884.78;5118367;28;20214;-73
2023/03/14 07:37:50;;;;;;;17.77;16.05;;;;;;;5.50;50.78;94888.44;5118308;28;20187;-73
2023/03/14 07:40:16;;;;;;;19.00;17.08;;;;;;;5.65;51.59;94883.59;5118334;28;20195;-73
2023/03/14 07:42:44;;;;;;;19.50;17.70;;;;;;;5.77;50.79;94881.81;5117942;28;20234;-72
2023/03/14 07:45:11;;;;;;;20.05;18.02;;;;;;;5.83;51.50;94878.88;5118015;28;20198;-72
2023/03/14 07:47:38;;;;;;;20.50;18.40;;;;;;;5.89;51.49;94881.09;5118029;28;20268;-72
2023/03/14 07:50:07;;;;;;;20.25;17.83;;;;;;;6.03;50.51;94878.19;5118112;28;20202;-72
2023/03/14 07:52:34;;;;;;;20.02;17.65;;;;;;;6.17;50.22;94884.25;5118486;28;20199;-73
2023/03/14 07:55:01;;;;;;;20.63;18.40;;;;;;;6.21;49.51;94885.19;5118300;28;20200;-73
2023/03/14 07:57:27;;;;;;;20.88;18.88;;;;;;;6.25;49.17;94877.94;5118212;28;20195;-73
2023/03/14 07:59:54;;;;;;;21.38;19.20;;;;;;;6.35;48.85;94878.66;5117852;28;20198;-73
2023/03/14 08:02:22;;;;;;;20.70;18.63;;;;;;;6.44;48.57;94876.69;5118454;28;20194;-72
2023/03/14 08:04:49;;;;;;;20.85;18.63;;;;;;;6.49;49.16;94863.59;5118483;28;20195;-72
2023/03/14 08:07:17;;;;;;;16.45;14.63;;;;;;;6.69;50.39;94869.44;5118151;28;20194;-72
2023/03/14 08:09:44;;;;;;;18.90;17.00;;;;;;;6.98;49.81;94866.66;5118043;28;20191;-72
2023/03/14 08:12:11;;;;;;;21.73;19.67;;;;;;;7.20;49.79;94862.75;5118118;28;20190;-73
2023/03/14 08:14:38;;;;;;;20.20;18.25;;;;;;;7.18;46.71;94876.00;5119397;28;20210;-73
2023/03/14 08:17:05;;;;;;;19.73;17.88;;;;;;;7.16;48.56;94858.28;5118217;28;20195;-73
2023/03/14 08:19:31;;;;;;;18.85;16.92;;;;;;;7.11;48.36;94858.47;5118668;28;20195;-73
2023/03/14 08:21:58;;;;;;;20.33;17.25;;;;;;;7.10;48.86;94856.88;5136480;28;20553;-73
2023/03/14 08:24:26;;;;;;;19.05;17.27;;;;;;;7.15;48.10;94856.66;5118846;28;20179;-72
2023/03/14 08:26:53;;;;;;;19.63;17.73;;;;;;;7.20;48.24;94860.00;5118994;28;20191;-72
2023/03/14 08:29:20;;;;;;;21.05;18.95;;;;;;;7.23;48.77;94864.03;5118260;28;20207;-73
2023/03/14 08:31:48;;;;;;;20.98;19.08;;;;;;;7.28;48.60;94854.78;5122210;27;20187;-72
2023/03/14 08:34:15;;;;;;;19.67;17.77;;;;;;;7.32;48.00;94850.22;5122716;27;20313;-73
2023/03/14 08:36:42;;;;;;;20.38;18.38;;;;;;;7.46;48.54;94843.28;5123080;27;20534;-73
2023/03/14 08:39:09;;;;;;;19.58;17.63;;;;;;;7.62;47.27;94837.94;5122664;27;20191;-72
2023/03/14 08:41:40;;;;;;;19.48;17.63;;;;;;;7.75;46.06;94840.75;5122569;27;20228;-72
2023/03/14 08:44:06;;;;;;;20.52;18.45;;;;;;;7.81;47.14;94828.41;5122217;27;20238;-72
2023/03/14 08:46:33;;;;;;;17.73;16.05;;;;;;;7.91;46.89;94828.75;5122868;27;20537;-73
2023/03/14 08:49:00;;;;;;;19.02;16.98;;;;;;;8.01;47.25;94832.19;5122802;27;20205;-72
2023/03/14 08:51:27;;;;;;;20.20;18.20;;;;;;;8.03;47.98;94819.72;5140317;27;20190;-72
2023/03/14 08:53:53;;;;;;;20.10;17.88;;;;;;;8.00;46.96;94814.91;5122106;27;20218;-72
2023/03/14 08:56:20;;;;;;;19.40;17.40;;;;;;;8.11;46.25;94816.06;5121979;27;20218;-72
2023/03/14 08:58:48;;;;;;;17.50;15.73;;;;;;;8.18;45.45;94805.31;5140395;27;20226;-72
2023/03/14 09:01:15;;;;;;;16.55;15.05;;;;;;;8.36;45.61;94805.06;5121543;27;20190;-73
2023/03/14 09:03:42;;;;;;;16.42;14.80;;;;;;;8.39;43.29;94791.47;5122084;27;20188;-72
2023/03/14 09:06:11;;;;;;;17.70;15.30;;;;;;;8.51;43.88;94784.34;5122140;27;20187;-73
2023/03/14 09:08:37;;;;;;;15.27;13.73;;;;;;;8.62;42.85;94778.03;5121884;27;20203;-72
2023/03/14 09:11:07;;;;;;;14.35;13.00;;;;;;;8.61;42.69;94784.66;5121616;27;20195;-72
2023/03/14 09:13:33;;;;;;;14.63;13.07;;;;;;;8.71;43.28;94779.81;5121670;27;20198;-72
2023/03/14 09:16:01;;;;;;;14.38;12.80;;;;;;;8.87;43.03;94776.00;5121576;27;20617;-73
2023/03/14 09:18:28;;;;;;;14.13;12.68;;;;;;;8.98;42.78;94768.06;5122262;27;20206;-72
2023/03/14 09:20:56;;;;;;;12.90;11.75;;;;;;;9.07;43.00;94762.38;5122197;27;20195;-72
2023/03/14 09:23:22;;;;;;;12.18;11.15;;;;;;;9.13;41.45;94758.25;5121581;27;20198;-72
2023/03/14 09:25:49;;;;;;;12.15;10.82;;;;;;;9.23;41.48;94754.19;5121983;27;20187;-72
2023/03/14 09:28:16;;;;;;;13.45;11.65;;;;;;;9.25;41.28;94749.91;5121835;27;20175;-72
2023/03/14 09:30:43;;;;;;;11.15;9.85;;;;;;;9.37;41.75;94738.88;5122135;27;20199;-72
2023/03/14 09:33:11;;;;;;;11.55;10.50;;;;;;;9.55;41.09;94744.00;5121348;27;20199;-72
2023/03/14 09:35:37;;;;;;;10.70;9.63;;;;;;;9.62;40.46;94739.50;5121317;27;20218;-72
2023/03/14 09:38:05;;;;;;;10.90;9.80;;;;;;;9.67;40.49;94743.94;5121591;27;20187;-72
2023/03/14 09:40:35;;;;;;;10.50;9.50;;;;;;;9.96;42.80;94733.63;5121535;27;20191;-72
2023/03/14 09:43:02;;;;;;;9.90;9.00;;;;;;;10.18;41.85;94719.19;5120059;27;20235;-72
2023/03/14 09:45:32;;;;;;;10.43;9.38;;;;;;;10.39;40.54;94727.19;5139506;27;20191;-72
2023/03/14 09:48:00;;;;;;;10.00;9.00;;;;;;;10.50;38.85;94708.91;5120498;27;20195;-72
2023/03/14 09:50:34;;;;;;;9.18;8.30;;;;;;;10.48;40.06;94707.66;5121301;27;20195;-72
2023/03/14 09:53:04;;;;;;;9.02;8.13;;;;;;;10.63;40.14;94697.75;5121349;27;20198;-72
2023/03/14 09:55:32;;;;;;;9.48;8.57;;;;;;;10.70;39.34;94689.63;5121028;27;20226;-72
2023/03/14 09:58:00;;;;;;;10.15;8.77;;;;;;;10.84;38.92;94698.19;5121201;27;20191;-72
2023/03/14 10:00:30;;;;;;;10.40;9.30;;;;;;;11.06;38.84;94688.34;5120750;27;20622;-72
2023/03/14 10:02:58;;;;;;;9.55;8.70;;;;;;;11.09;38.88;94682.13;5120250;27;20254;-72
2023/03/14 10:05:29;;;;;;;9.80;8.98;;;;;;;11.16;38.75;94676.72;5120137;27;20199;-72
2023/03/14 10:07:56;;;;;;;10.45;9.32;;;;;;;11.25;39.08;94670.97;5120590;27;20183;-72
2023/03/14 10:10:25;;;;;;;10.00;9.00;;;;;;;11.39;38.70;94662.13;5120266;27;20622;-72
2023/03/14 10:12:57;;;;;;;9.80;8.88;;;;;;;11.44;37.17;94657.13;5121006;27;20195;-72
2023/03/14 10:15:27;;;;;;;9.30;8.40;;;;;;;11.53;38.08;94652.13;5120782;27;20219;-72
2023/03/14 10:17:54;;;;;;;12.10;9.27;;;;;;;11.69;39.85;94648.44;5120601;27;20187;-72
2023/03/14 10:20:33;;;;;;;10.20;9.20;;;;;;;11.87;38.70;94637.69;5120320;27;20202;-72
2023/03/14 10:23:00;;;;;;;9.27;8.25;;;;;;;11.92;36.38;94634.63;5120803;27;20683;-72
2023/03/14 10:25:29;;;;;;;9.20;8.38;;;;;;;11.99;37.11;94632.75;5121065;27;20515;-72
2023/03/14 10:27:55;;;;;;;8.30;7.50;;;;;;;12.09;37.69;94627.75;5120568;27;20206;-72
2023/03/14 10:30:34;;;;;;;7.97;7.13;;;;;;;12.06;35.72;94621.03;5120684;27;20234;-72
2023/03/14 10:33:09;;;;;;;8.57;7.75;;;;;;;12.11;38.02;94608.84;5119927;27;20240;-72
2023/03/14 10:35:37;;;;;;;10.35;7.28;;;;;;;12.21;34.86;94602.66;5120773;27;20218;-72
2023/03/14 10:38:05;;;;;;;7.68;6.78;;;;;;;12.31;35.99;94593.72;5121217;27;20199;-72
2023/03/14 10:40:33;;;;;;;7.65;6.05;;;;;;;12.38;34.31;94592.97;5121008;27;20225;-72
2023/03/14 10:43:00;;;;;;;6.50;5.47;;;;;;;12.38;33.40;94581.91;5120913;27;20238;-72
2023/03/14 10:45:33;;;;;;;5.85;5.32;;;;;;;12.36;34.39;94574.00;5120418;27;20199;-72
2023/03/14 10:48:06;;;;;;;6.63;5.78;;;;;;;12.32;35.29;94569.63;5119936;27;20195;-72
2023/03/14 10:50:33;;;;;;;7.10;6.25;;;;;;;12.42;34.74;94560.66;5120237;27;20215;-72
2023/03/14 10:53:05;;;;;;;7.80;6.55;;;;;;;12.55;34.60;94558.44;5119337;27;20191;-72
2023/03/14 10:55:41;;;;;;;7.03;6.32;;;;;;;12.81;36.32;94550.00;5120356;27;20211;-72
2023/03/14 10:58:21;;;;;;;8.55;7.32;;;;;;;12.62;32.77;94550.22;5119581;27;20205;-72
2023/03/14 11:00:53;;;;;;;8.20;7.40;;;;;;;12.48;34.21;94548.06;5118983;27;20262;-72
2023/03/14 11:03:20;;;;;;;9.00;7.40;;;;;;;12.53;35.19;94543.00;5119169;27;20186;-72
2023/03/14 11:05:51;;;;;;;8.55;7.70;;;;;;;12.77;36.58;94538.09;5120306;27;20281;-72
2023/03/14 11:08:24;;;;;;;8.45;7.70;;;;;;;12.94;36.39;94531.97;5120661;27;20195;-72
2023/03/14 11:10:54;;;;;;;9.90;8.10;;;;;;;13.11;37.93;94524.19;5120493;27;20201;-73
2023/03/14 11:13:25;;;;;;;8.77;7.70;;;;;;;13.27;36.09;94512.91;5119748;27;20222;-72
2023/03/14 11:15:59;;;;;;;8.98;7.60;;;;;;;13.29;33.87;94504.97;5119165;27;20210;-72
2023/03/14 11:19:07;;;;;;;10.45;8.35;;;;;;;13.28;36.08;94495.09;5119812;27;20194;-72
2023/03/14 11:21:38;;;;;;;8.80;7.90;;;;;;;13.59;37.10;94479.88;5056207;27;20215;-72
2023/03/14 11:24:19;;;;;;;9.20;8.23;;;;;;;13.71;34.89;94485.09;5120621;27;20194;-72
2023/03/14 11:26:50;;;;;;;8.48;7.57;;;;;;;13.79;36.78;94481.19;5120345;28;20197;-73
2023/03/14 11:29:21;;;;;;;7.50;6.80;;;;;;;13.98;37.83;94469.00;5120132;28;20203;-73
2023/03/14 11:31:49;;;;;;;9.40;7.75;;;;;;;14.21;35.99;94468.69;5120011;28;20202;-72